createdAt,value
2022-10-04T00:00:02.622Z,9.680901
2022-10-04T00:01:02.612Z,9.681104
2022-10-04T00:02:02.698Z,9.681171
2022-10-04T00:03:02.666Z,9.681105
2022-10-04T00:04:02.594Z,9.681105
2022-10-04T00:05:02.600Z,9.681005
2022-10-04T00:06:02.574Z,9.681170
2022-10-04T00:07:02.569Z,9.681182
2022-10-04T00:08:02.558Z,9.681154
2022-10-04T00:09:02.579Z,9.681384
2022-10-04T00:10:02.560Z,9.681070
2022-10-04T00:11:02.547Z,9.681199
2022-10-04T00:12:02.534Z,9.681229
2022-10-04T00:13:02.539Z,9.681041
2022-10-04T00:14:02.519Z,9.681002
2022-10-04T00:15:02.531Z,9.681038
2022-10-04T00:16:02.556Z,9.681196
2022-10-04T00:17:02.497Z,9.681003
2022-10-04T00:18:02.510Z,9.680890
2022-10-04T00:19:02.504Z,9.681164
2022-10-04T00:20:02.484Z,9.681058
2022-10-04T00:21:02.491Z,9.681011
2022-10-04T00:22:02.470Z,9.680919
2022-10-04T00:23:02.464Z,9.681075
2022-10-04T00:24:02.472Z,9.681198
2022-10-04T00:25:02.455Z,9.681057
2022-10-04T00:26:02.458Z,9.681157
2022-10-04T00:27:02.464Z,9.681024
2022-10-04T00:28:02.465Z,9.681091
2022-10-04T00:29:02.415Z,9.681453
2022-10-04T00:30:02.435Z,9.681607
2022-10-04T00:31:02.479Z,9.681022
2022-10-04T00:32:02.399Z,9.680914
2022-10-04T00:33:02.409Z,9.680725
2022-10-04T00:34:02.396Z,9.680853
2022-10-04T00:35:02.385Z,9.681211
2022-10-04T00:36:02.382Z,9.681187
2022-10-04T00:37:02.376Z,9.681185
2022-10-04T00:38:02.385Z,9.681318
2022-10-04T00:39:02.369Z,9.681254
2022-10-04T00:40:02.343Z,9.681309
2022-10-04T00:41:02.336Z,9.681142
2022-10-04T00:42:02.331Z,9.681026
2022-10-04T00:43:02.330Z,9.681074
2022-10-04T00:44:02.334Z,9.681030
2022-10-04T00:45:02.344Z,9.681162
2022-10-04T00:46:02.369Z,9.681133
2022-10-04T00:47:02.308Z,9.680971
2022-10-04T00:48:02.304Z,9.680965
2022-10-04T00:49:02.292Z,9.681093
2022-10-04T00:50:02.297Z,9.681012
2022-10-04T00:51:02.306Z,9.681148
2022-10-04T00:52:02.260Z,9.681298
2022-10-04T00:53:02.260Z,9.681105
2022-10-04T00:54:02.247Z,9.681123
2022-10-04T00:55:02.264Z,9.681314
2022-10-04T00:56:02.228Z,9.681219
2022-10-04T00:57:02.226Z,9.681164
2022-10-04T00:58:02.212Z,9.681350
2022-10-04T00:59:02.251Z,9.681104
2022-10-04T01:00:02.216Z,9.681396
2022-10-04T01:01:02.292Z,9.681123
2022-10-04T01:02:02.237Z,9.681092
2022-10-04T01:03:02.192Z,9.681164
2022-10-04T01:04:02.169Z,9.681194
2022-10-04T01:05:02.166Z,9.681352
2022-10-04T01:06:02.172Z,9.681296
2022-10-04T01:07:02.154Z,9.681345
2022-10-04T01:08:02.166Z,9.681012
2022-10-04T01:09:02.145Z,9.681000
2022-10-04T01:10:02.123Z,9.680851
2022-10-04T01:11:02.124Z,9.680952
2022-10-04T01:12:02.133Z,9.680965
2022-10-04T01:13:02.112Z,9.680934
2022-10-04T01:14:02.096Z,9.681012
2022-10-04T01:15:02.089Z,9.681310
2022-10-04T01:16:02.139Z,9.681564
2022-10-04T01:17:02.076Z,9.681490
2022-10-04T01:18:03.323Z,9.681342
2022-10-04T01:19:02.062Z,9.681199
2022-10-04T01:20:02.057Z,9.681114
2022-10-04T01:21:02.076Z,9.681187
2022-10-04T01:22:02.121Z,9.681496
2022-10-04T01:23:02.035Z,9.682301
2022-10-04T01:24:02.023Z,9.681977
2022-10-04T01:25:02.008Z,9.682705
2022-10-04T01:26:02.006Z,9.681338
2022-10-04T01:27:02.024Z,9.680676
2022-10-04T01:28:02.072Z,9.680704
2022-10-04T01:29:01.978Z,9.680627
2022-10-04T01:30:01.984Z,9.680787
2022-10-04T01:31:02.019Z,9.681037
2022-10-04T01:32:01.963Z,9.680257
2022-10-04T01:33:01.973Z,9.679990
2022-10-04T01:34:01.946Z,9.679891
2022-10-04T01:35:01.950Z,9.679280
2022-10-04T01:36:01.944Z,9.679661
2022-10-04T01:37:01.944Z,9.679539
2022-10-04T01:38:01.947Z,9.679692
2022-10-04T01:39:01.922Z,9.679749
2022-10-04T01:40:01.913Z,9.679781
2022-10-04T01:41:01.903Z,9.680008
2022-10-04T01:42:01.917Z,9.680166
2022-10-04T01:43:01.900Z,9.680243
2022-10-04T01:44:01.923Z,9.680507
2022-10-04T01:45:01.875Z,9.680838
2022-10-04T01:46:01.903Z,9.681103
2022-10-04T01:47:01.876Z,9.681181
2022-10-04T01:48:01.856Z,9.681474
2022-10-04T01:49:01.852Z,9.681941
2022-10-04T01:50:01.855Z,9.681413
2022-10-04T01:51:01.835Z,9.681281
2022-10-04T01:52:01.824Z,9.681472
2022-10-04T01:53:01.828Z,9.681130
2022-10-04T01:54:01.813Z,9.681232
2022-10-04T01:55:01.810Z,9.681062
2022-10-04T01:56:01.824Z,9.681337
2022-10-04T01:57:01.812Z,9.681252
2022-10-04T01:58:01.785Z,9.681341
2022-10-04T01:59:01.780Z,9.681529
2022-10-04T02:00:01.776Z,9.681373
2022-10-04T02:01:01.847Z,9.681357
2022-10-04T02:02:01.749Z,9.681600
2022-10-04T02:03:01.752Z,9.681040
2022-10-04T02:04:01.763Z,9.680676
2022-10-04T02:05:01.820Z,9.680895
2022-10-04T02:06:01.731Z,9.680677
2022-10-04T02:07:01.724Z,9.681324
2022-10-04T02:08:01.715Z,9.681463
2022-10-04T02:09:01.701Z,9.681577
2022-10-04T02:10:01.720Z,9.681457
2022-10-04T02:11:01.697Z,9.681552
2022-10-04T02:12:01.708Z,9.681268
2022-10-04T02:13:01.685Z,9.681523
2022-10-04T02:14:01.678Z,9.681595
2022-10-04T02:15:01.681Z,9.681202
2022-10-04T02:16:01.783Z,9.681340
2022-10-04T02:17:01.690Z,9.681520
2022-10-04T02:18:01.674Z,9.681318
2022-10-04T02:19:01.651Z,9.681212
2022-10-04T02:20:01.643Z,9.681179
2022-10-04T02:21:01.630Z,9.681089
2022-10-04T02:22:01.620Z,9.681213
2022-10-04T02:23:01.618Z,9.681325
2022-10-04T02:24:01.622Z,9.681324
2022-10-04T02:25:01.597Z,9.681344
2022-10-04T02:26:01.594Z,9.681208
2022-10-04T02:27:01.586Z,9.681143
2022-10-04T02:28:01.611Z,9.681092
2022-10-04T02:29:01.571Z,9.680935
2022-10-04T02:30:01.580Z,9.680976
2022-10-04T02:31:01.594Z,9.681410
2022-10-04T02:32:01.549Z,9.681226
2022-10-04T02:33:01.562Z,9.681162
2022-10-04T02:34:01.542Z,9.681165
2022-10-04T02:35:01.535Z,9.681044
2022-10-04T02:36:01.543Z,9.681611
2022-10-04T02:37:01.533Z,9.681309
2022-10-04T02:38:01.504Z,9.681418
2022-10-04T02:39:01.506Z,9.681429
2022-10-04T02:40:01.507Z,9.681201
2022-10-04T02:41:01.499Z,9.680859
2022-10-04T02:42:01.479Z,9.680865
2022-10-04T02:43:01.491Z,9.681022
2022-10-04T02:44:01.470Z,9.681091
2022-10-04T02:45:01.469Z,9.681293
2022-10-04T02:46:01.509Z,9.681443
2022-10-04T02:47:01.449Z,9.681172
2022-10-04T02:48:01.441Z,9.680851
2022-10-04T02:49:01.447Z,9.680975
2022-10-04T02:50:01.435Z,9.680930
2022-10-04T02:51:01.430Z,9.680852
2022-10-04T02:52:01.438Z,9.681031
2022-10-04T02:53:01.407Z,9.681134
2022-10-04T02:54:03.659Z,9.680970
2022-10-04T02:55:01.396Z,9.680907
2022-10-04T02:56:01.386Z,9.681037
2022-10-04T02:57:01.397Z,9.680993
2022-10-04T02:58:01.470Z,9.681078
2022-10-04T02:59:01.353Z,9.680953
2022-10-04T03:00:01.353Z,9.681099
2022-10-04T03:01:01.380Z,9.680856
2022-10-04T03:02:01.396Z,9.680921
2022-10-04T03:03:01.352Z,9.681213
2022-10-04T03:04:01.316Z,9.681274
2022-10-04T03:05:01.312Z,9.681226
2022-10-04T03:06:01.300Z,9.681199
2022-10-04T03:07:01.303Z,9.680889
2022-10-04T03:08:01.296Z,9.680842
2022-10-04T03:09:01.313Z,9.680928
2022-10-04T03:10:01.291Z,9.680915
2022-10-04T03:11:01.270Z,9.680862
2022-10-04T03:12:01.269Z,9.681065
2022-10-04T03:13:01.269Z,9.681056
2022-10-04T03:14:01.273Z,9.681024
2022-10-04T03:15:01.265Z,9.680824
2022-10-04T03:16:01.271Z,9.680881
2022-10-04T03:17:01.233Z,9.681413
2022-10-04T03:18:01.226Z,9.681264
2022-10-04T03:19:01.211Z,9.681404
2022-10-04T03:20:01.215Z,9.681368
2022-10-04T03:21:01.214Z,9.681001
2022-10-04T03:22:08.193Z,9.681231
2022-10-04T03:23:01.190Z,9.680798
2022-10-04T03:24:01.230Z,9.681172
2022-10-04T03:25:01.175Z,9.680820
2022-10-04T03:26:01.180Z,9.681163
2022-10-04T03:27:01.261Z,9.681334
2022-10-04T03:28:01.235Z,9.681014
2022-10-04T03:29:01.193Z,9.681194
2022-10-04T03:30:01.141Z,9.680795
2022-10-04T03:31:01.262Z,9.681113
2022-10-04T03:32:01.121Z,9.681369
2022-10-04T03:33:01.149Z,9.680925
2022-10-04T03:34:01.107Z,9.680989
2022-10-04T03:35:01.101Z,9.680961
2022-10-04T03:36:01.086Z,9.681139
2022-10-04T03:37:01.088Z,9.680990
2022-10-04T03:38:01.093Z,9.681142
2022-10-04T03:39:01.081Z,9.681232
2022-10-04T03:40:01.083Z,9.681283
2022-10-04T03:41:01.048Z,9.681185
2022-10-04T03:42:01.073Z,9.681286
2022-10-04T03:43:01.074Z,9.681315
2022-10-04T03:44:04.877Z,9.681231
2022-10-04T03:45:01.041Z,9.681035
2022-10-04T03:46:01.229Z,9.680869
2022-10-04T03:47:01.031Z,9.680916
2022-10-04T03:48:01.021Z,9.681165
2022-10-04T03:49:01.002Z,9.681594
2022-10-04T03:50:00.990Z,9.681306
2022-10-04T03:51:00.978Z,9.681322
2022-10-04T03:52:00.990Z,9.681304
2022-10-04T03:53:00.989Z,9.681490
2022-10-04T03:54:00.967Z,9.681450
2022-10-04T03:55:00.966Z,9.680958
2022-10-04T03:56:04.289Z,9.681072
2022-10-04T03:57:00.935Z,9.681161
2022-10-04T03:58:00.939Z,9.681092
2022-10-04T03:59:00.955Z,9.681140
2022-10-04T04:00:00.929Z,9.681614
2022-10-04T04:01:00.952Z,9.681446
2022-10-04T04:02:00.946Z,9.681240
2022-10-04T04:03:00.992Z,9.681383
2022-10-04T04:04:00.899Z,9.681250
2022-10-04T04:05:00.920Z,9.681104
2022-10-04T04:06:00.901Z,9.681268
2022-10-04T04:07:00.887Z,9.681112
2022-10-04T04:08:00.873Z,9.681067
2022-10-04T04:09:00.870Z,9.681118
2022-10-04T04:10:00.860Z,9.681149
2022-10-04T04:11:00.911Z,9.681449
2022-10-04T04:12:00.841Z,9.681360
2022-10-04T04:13:00.948Z,9.681342
2022-10-04T04:14:00.828Z,9.681140
2022-10-04T04:15:00.828Z,9.681231
2022-10-04T04:16:00.886Z,9.681123
2022-10-04T04:17:00.814Z,9.681411
2022-10-04T04:18:00.806Z,9.681220
2022-10-04T04:19:00.938Z,9.681407
2022-10-04T04:20:06.139Z,9.681259
2022-10-04T04:21:00.821Z,9.680975
2022-10-04T04:22:00.906Z,9.681106
2022-10-04T04:23:00.774Z,9.681170
2022-10-04T04:24:00.802Z,9.681972
2022-10-04T04:25:00.768Z,9.681659
2022-10-04T04:26:00.752Z,9.681289
2022-10-04T04:27:00.788Z,9.681213
2022-10-04T04:28:00.852Z,9.681403
2022-10-04T04:29:00.737Z,9.681382
2022-10-04T04:30:00.743Z,9.681507
2022-10-04T04:31:00.779Z,9.681463
2022-10-04T04:32:00.743Z,9.681392
2022-10-04T04:33:00.726Z,9.681236
2022-10-04T04:34:00.893Z,9.681428
2022-10-04T04:35:00.713Z,9.681604
2022-10-04T04:36:00.690Z,9.681144
2022-10-04T04:37:00.680Z,9.680963
2022-10-04T04:38:00.718Z,9.681181
2022-10-04T04:39:00.724Z,9.681098
2022-10-04T04:40:00.752Z,9.681398
2022-10-04T04:41:01.303Z,9.681385
2022-10-04T04:42:00.707Z,9.681133
2022-10-04T04:43:00.650Z,9.681210
2022-10-04T04:44:00.638Z,9.681116
2022-10-04T04:45:00.761Z,9.681227
2022-10-04T04:46:25.970Z,9.681031
2022-10-04T04:47:01.640Z,9.681190
2022-10-04T04:48:00.647Z,9.681272
2022-10-04T04:49:00.623Z,9.681144
2022-10-04T04:50:00.608Z,9.681159
2022-10-04T04:51:00.606Z,9.681095
2022-10-04T04:52:00.611Z,9.681159
2022-10-04T04:53:00.577Z,9.680779
2022-10-04T04:54:00.599Z,9.680771
2022-10-04T04:55:00.601Z,9.681014
2022-10-04T04:56:04.805Z,9.681027
2022-10-04T04:57:00.584Z,9.680995
2022-10-04T04:58:00.587Z,9.680878
2022-10-04T04:59:00.561Z,9.681020
2022-10-04T05:00:00.581Z,9.681051
2022-10-04T05:01:00.686Z,9.681019
2022-10-04T05:02:00.621Z,9.681049
2022-10-04T05:03:00.588Z,9.681157
2022-10-04T05:04:00.537Z,9.681169
2022-10-04T05:05:00.509Z,9.681171
2022-10-04T05:06:00.516Z,9.680901
2022-10-04T05:07:00.559Z,9.680884
2022-10-04T05:08:00.602Z,9.681229
2022-10-04T05:09:00.494Z,9.681097
2022-10-04T05:10:00.494Z,9.680921
2022-10-04T05:11:00.517Z,9.680996
2022-10-04T05:12:00.478Z,9.681027
2022-10-04T05:13:00.464Z,9.681058
2022-10-04T05:14:00.484Z,9.681046
2022-10-04T05:15:00.499Z,9.681087
2022-10-04T05:16:00.498Z,9.681169
2022-10-04T05:17:00.429Z,9.681182
2022-10-04T05:18:00.501Z,9.681148
2022-10-04T05:19:00.447Z,9.681056
2022-10-04T05:20:00.935Z,9.681085
2022-10-04T05:21:00.419Z,9.681003
2022-10-04T05:22:00.499Z,9.681124
2022-10-04T05:23:00.409Z,9.680969
2022-10-04T05:24:00.389Z,9.680845
2022-10-04T05:25:00.398Z,9.680964
2022-10-04T05:26:00.386Z,9.681157
2022-10-04T05:27:00.389Z,9.681220
2022-10-04T05:28:00.418Z,9.680984
2022-10-04T05:29:00.356Z,9.680853
2022-10-04T05:30:00.348Z,9.681034
2022-10-04T05:31:00.337Z,9.681028
2022-10-04T05:32:00.424Z,9.680872
2022-10-04T05:33:00.330Z,9.680880
2022-10-04T05:34:00.342Z,9.680776
2022-10-04T05:35:00.345Z,9.680482
2022-10-04T05:36:00.303Z,9.680459
2022-10-04T05:37:00.300Z,9.680546
2022-10-04T05:38:00.286Z,9.680995
2022-10-04T05:39:00.283Z,9.681103
2022-10-04T05:40:00.283Z,9.680981
2022-10-04T05:41:00.286Z,9.681028
2022-10-04T05:42:00.273Z,9.680886
2022-10-04T05:43:00.258Z,9.680326
2022-10-04T05:44:00.260Z,9.680467
2022-10-04T05:45:00.241Z,9.680641
2022-10-04T05:46:00.267Z,9.680858
2022-10-04T05:47:00.233Z,9.681507
2022-10-04T05:48:00.224Z,9.681283
2022-10-04T05:49:00.235Z,9.681274
2022-10-04T05:50:00.212Z,9.681039
2022-10-04T05:51:00.210Z,9.681054
2022-10-04T05:52:00.209Z,9.681120
2022-10-04T05:53:00.209Z,9.681221
2022-10-04T05:54:00.203Z,9.681050
2022-10-04T05:55:00.214Z,9.681256
2022-10-04T05:56:00.171Z,9.681000
2022-10-04T05:57:00.177Z,9.681463
2022-10-04T05:58:00.151Z,9.680920
2022-10-04T05:59:00.170Z,9.680633
2022-10-04T06:00:04.208Z,9.681035
2022-10-04T06:01:00.212Z,9.681462
2022-10-04T06:02:00.258Z,9.681447
2022-10-04T06:03:00.127Z,9.681369
2022-10-04T06:04:00.129Z,9.681246
2022-10-04T06:05:00.130Z,9.681302
2022-10-04T06:06:00.106Z,9.681284
2022-10-04T06:07:00.120Z,9.681265
2022-10-04T06:08:00.086Z,9.681353
2022-10-04T06:09:00.090Z,9.681015
2022-10-04T06:10:00.071Z,9.680963
2022-10-04T06:11:00.074Z,9.681035
2022-10-04T06:12:00.064Z,9.681005
2022-10-04T06:13:00.097Z,9.681195
2022-10-04T06:14:00.039Z,9.681221
2022-10-04T06:15:00.031Z,9.681237
2022-10-04T06:16:00.059Z,9.681437
2022-10-04T06:17:00.125Z,9.681350
2022-10-04T06:18:00.011Z,9.680973
2022-10-04T06:19:00.002Z,9.680955
2022-10-04T06:20:00.011Z,9.680816
2022-10-04T06:20:59.996Z,9.681027
2022-10-04T06:21:59.982Z,9.680954
2022-10-04T06:23:00.010Z,9.681132
2022-10-04T06:23:59.966Z,9.681406
2022-10-04T06:24:59.959Z,9.681280
2022-10-04T06:25:59.969Z,9.681085
2022-10-04T06:26:59.948Z,9.681243
2022-10-04T06:28:00.035Z,9.681562
2022-10-04T06:28:59.941Z,9.681177
2022-10-04T06:29:59.951Z,9.681367
2022-10-04T06:31:00.002Z,9.681188
2022-10-04T06:31:59.915Z,9.681464
2022-10-04T06:32:59.948Z,9.681249
2022-10-04T06:33:59.900Z,9.681225
2022-10-04T06:34:59.920Z,9.681288
2022-10-04T06:35:59.892Z,9.681362
2022-10-04T06:36:59.922Z,9.681023
2022-10-04T06:37:59.886Z,9.681070
2022-10-04T06:39:03.434Z,9.680618
2022-10-04T06:39:59.862Z,9.680849
2022-10-04T06:40:59.857Z,9.681023
2022-10-04T06:41:59.847Z,9.681224
2022-10-04T06:42:59.894Z,9.681226
2022-10-04T06:43:59.842Z,9.680994
2022-10-04T06:44:59.872Z,9.680937
2022-10-04T06:45:59.887Z,9.681025
2022-10-04T06:46:59.834Z,9.681572
2022-10-04T06:47:59.844Z,9.681207
2022-10-04T06:48:59.828Z,9.681317
2022-10-04T06:49:59.810Z,9.681411
2022-10-04T06:50:59.814Z,9.681164
2022-10-04T06:51:59.791Z,9.681515
2022-10-04T06:52:59.782Z,9.681063
2022-10-04T06:53:59.801Z,9.681032
2022-10-04T06:54:59.784Z,9.680839
2022-10-04T06:55:59.782Z,9.681023
2022-10-04T06:56:59.757Z,9.681484
2022-10-04T06:57:59.745Z,9.680956
2022-10-04T06:58:59.759Z,9.681240
2022-10-04T06:59:59.741Z,9.681360
2022-10-04T07:00:59.762Z,9.681224
2022-10-04T07:01:59.814Z,9.681152
2022-10-04T07:02:59.715Z,9.681182
2022-10-04T07:03:59.710Z,9.680922
2022-10-04T07:05:15.040Z,9.681395
2022-10-04T07:06:00.696Z,9.681255
2022-10-04T07:06:59.697Z,9.681182
2022-10-04T07:07:59.699Z,9.681293
2022-10-04T07:08:59.732Z,9.681532
2022-10-04T07:09:59.696Z,9.681530
2022-10-04T07:10:59.677Z,9.681182
2022-10-04T07:11:59.651Z,9.680891
2022-10-04T07:12:59.648Z,9.681057
2022-10-04T07:13:59.639Z,9.681283
2022-10-04T07:14:59.630Z,9.681126
2022-10-04T07:15:59.672Z,9.680906
2022-10-04T07:16:59.619Z,9.681158
2022-10-04T07:17:59.609Z,9.680682
2022-10-04T07:18:59.598Z,9.680914
2022-10-04T07:19:59.594Z,9.681204
2022-10-04T07:20:59.593Z,9.681303
2022-10-04T07:21:59.611Z,9.680871
2022-10-04T07:22:59.575Z,9.680907
2022-10-04T07:23:59.573Z,9.681142
2022-10-04T07:24:59.559Z,9.681357
2022-10-04T07:25:59.551Z,9.681070
2022-10-04T07:26:59.561Z,9.681108
2022-10-04T07:27:59.589Z,9.681116
2022-10-04T07:28:59.531Z,9.680994
2022-10-04T07:29:59.516Z,9.680727
2022-10-04T07:30:59.581Z,9.680968
2022-10-04T07:31:59.526Z,9.681309
2022-10-04T07:32:59.511Z,9.681364
2022-10-04T07:33:59.508Z,9.681082
2022-10-04T07:34:59.487Z,9.681174
2022-10-04T07:35:59.502Z,9.681280
2022-10-04T07:36:59.504Z,9.681144
2022-10-04T07:37:59.466Z,9.680841
2022-10-04T07:38:59.463Z,9.680846
2022-10-04T07:39:59.456Z,9.680725
2022-10-04T07:40:59.441Z,9.680851
2022-10-04T07:41:59.453Z,9.681263
2022-10-04T07:42:59.445Z,9.680913
2022-10-04T07:43:59.442Z,9.680941
2022-10-04T07:44:59.442Z,9.681090
2022-10-04T07:45:59.451Z,9.681209
2022-10-04T07:46:59.406Z,9.681134
2022-10-04T07:47:59.400Z,9.680961
2022-10-04T07:48:59.406Z,9.681243
2022-10-04T07:49:59.382Z,9.681454
2022-10-04T07:50:59.393Z,9.681876
2022-10-04T07:51:59.364Z,9.681842
2022-10-04T07:52:59.359Z,9.681405
2022-10-04T07:53:59.358Z,9.681336
2022-10-04T07:54:59.379Z,9.681442
2022-10-04T07:55:59.340Z,9.681541
2022-10-04T07:56:59.325Z,9.681647
2022-10-04T07:57:59.323Z,9.681963
2022-10-04T07:58:59.319Z,9.681062
2022-10-04T07:59:59.308Z,9.681195
2022-10-04T08:00:59.338Z,9.681071
2022-10-04T08:01:59.342Z,9.681000
2022-10-04T08:02:59.360Z,9.681467
2022-10-04T08:03:59.270Z,9.681236
2022-10-04T08:04:59.279Z,9.681091
2022-10-04T08:05:59.261Z,9.680908
2022-10-04T08:06:59.267Z,9.681074
2022-10-04T08:07:59.248Z,9.680984
2022-10-04T08:08:59.236Z,9.681044
2022-10-04T08:09:59.229Z,9.681258
2022-10-04T08:10:59.223Z,9.681247
2022-10-04T08:11:59.237Z,9.681309
2022-10-04T08:12:59.238Z,9.681143
2022-10-04T08:13:59.225Z,9.681190
2022-10-04T08:14:59.202Z,9.681170
2022-10-04T08:15:59.346Z,9.681065
2022-10-04T08:16:59.183Z,9.681193
2022-10-04T08:17:59.197Z,9.681005
2022-10-04T08:18:59.168Z,9.681278
2022-10-04T08:19:59.160Z,9.681285
2022-10-04T08:20:59.197Z,9.680874
2022-10-04T08:21:59.144Z,9.680914
2022-10-04T08:22:59.129Z,9.680971
2022-10-04T08:23:59.193Z,9.680954
2022-10-04T08:24:59.122Z,9.680948
2022-10-04T08:25:59.122Z,9.681035
2022-10-04T08:26:59.126Z,9.680943
2022-10-04T08:27:59.151Z,9.681283
2022-10-04T08:28:59.096Z,9.681352
2022-10-04T08:29:59.088Z,9.681388
2022-10-04T08:30:59.117Z,9.681472
2022-10-04T08:32:04.259Z,9.681296
2022-10-04T08:33:00.097Z,9.681266
2022-10-04T08:33:59.060Z,9.681050
2022-10-04T08:34:59.048Z,9.681192
2022-10-04T08:35:59.044Z,9.681152
2022-10-04T08:36:59.025Z,9.681143
2022-10-04T08:37:59.057Z,9.680935
2022-10-04T08:38:59.016Z,9.681063
2022-10-04T08:39:59.014Z,9.681088
2022-10-04T08:40:59.021Z,9.681220
2022-10-04T08:41:58.982Z,9.681029
2022-10-04T08:42:58.977Z,9.681199
2022-10-04T08:43:58.971Z,9.680763
2022-10-04T08:44:58.962Z,9.680986
2022-10-04T08:45:58.982Z,9.681129
2022-10-04T08:46:59.009Z,9.681355
2022-10-04T08:47:58.962Z,9.681391
2022-10-04T08:48:58.940Z,9.681162
2022-10-04T08:49:58.918Z,9.681236
2022-10-04T08:50:58.907Z,9.681035
2022-10-04T08:51:58.923Z,9.681045
2022-10-04T08:52:58.909Z,9.681313
2022-10-04T08:53:58.878Z,9.681076
2022-10-04T08:54:58.895Z,9.681052
2022-10-04T08:55:58.868Z,9.681128
2022-10-04T08:56:58.857Z,9.681191
2022-10-04T08:57:58.876Z,9.681089
2022-10-04T08:58:58.841Z,9.681069
2022-10-04T08:59:58.833Z,9.680980
2022-10-04T09:00:58.849Z,9.681120
2022-10-04T09:01:58.835Z,9.681138
2022-10-04T09:02:58.863Z,9.681112
2022-10-04T09:03:58.813Z,9.681005
2022-10-04T09:04:58.811Z,9.681232
2022-10-04T09:05:58.782Z,9.681175
2022-10-04T09:06:58.774Z,9.681020
2022-10-04T09:07:58.780Z,9.681559
2022-10-04T09:08:58.752Z,9.681230
2022-10-04T09:09:58.803Z,9.680901
2022-10-04T09:10:58.745Z,9.681068
2022-10-04T09:11:58.735Z,9.681280
2022-10-04T09:12:58.738Z,9.681270
2022-10-04T09:13:58.719Z,9.681523
2022-10-04T09:14:58.730Z,9.681464
2022-10-04T09:15:58.788Z,9.681568
2022-10-04T09:16:58.699Z,9.681500
2022-10-04T09:17:58.716Z,9.681177
2022-10-04T09:18:58.680Z,9.680702
2022-10-04T09:20:13.933Z,9.680847
2022-10-04T09:20:59.685Z,9.681025
2022-10-04T09:22:02.029Z,9.681034
2022-10-04T09:23:06.632Z,9.681084
2022-10-04T09:23:58.636Z,9.681442
2022-10-04T09:24:58.638Z,9.680943
2022-10-04T09:25:58.620Z,9.680822
2022-10-04T09:26:58.635Z,9.680958
2022-10-04T09:27:58.688Z,9.680910
2022-10-04T09:29:03.930Z,9.680830
2022-10-04T09:29:59.604Z,9.680754
2022-10-04T09:30:58.609Z,9.681213
2022-10-04T09:31:58.579Z,9.681242
2022-10-04T09:32:58.571Z,9.680972
2022-10-04T09:33:58.560Z,9.681147
2022-10-04T09:34:58.578Z,9.681364
2022-10-04T09:35:58.540Z,9.681479
2022-10-04T09:36:58.546Z,9.681486
2022-10-04T09:37:58.562Z,9.680770
2022-10-04T09:39:25.309Z,9.681392
2022-10-04T09:39:59.526Z,9.681529
2022-10-04T09:40:58.507Z,9.681308
2022-10-04T09:41:58.507Z,9.680939
2022-10-04T09:42:58.493Z,9.681438
2022-10-04T09:43:58.479Z,9.681476
2022-10-04T09:44:58.466Z,9.680981
2022-10-04T09:45:58.513Z,9.680924
2022-10-04T09:46:58.512Z,9.681179
2022-10-04T09:47:58.459Z,9.680740
2022-10-04T09:48:58.444Z,9.681082
2022-10-04T09:49:58.423Z,9.680701
2022-10-04T09:50:58.438Z,9.681309
2022-10-04T09:51:58.405Z,9.681520
2022-10-04T09:52:58.431Z,9.681151
2022-10-04T09:53:58.421Z,9.681140
2022-10-04T09:54:58.398Z,9.681112
2022-10-04T09:55:58.384Z,9.681063
2022-10-04T09:56:58.391Z,9.681144
2022-10-04T09:57:58.359Z,9.681040
2022-10-04T09:58:58.360Z,9.680851
2022-10-04T09:59:58.343Z,9.680614
2022-10-04T10:00:58.353Z,9.680814
2022-10-04T10:01:58.406Z,9.681000
2022-10-04T10:02:58.452Z,9.681212
2022-10-04T10:03:58.323Z,9.681106
2022-10-04T10:04:58.306Z,9.681068
2022-10-04T10:05:58.292Z,9.681065
2022-10-04T10:06:58.293Z,9.680621
2022-10-04T10:07:58.286Z,9.680900
2022-10-04T10:08:58.305Z,9.681004
2022-10-04T10:09:58.274Z,9.680693
2022-10-04T10:10:58.274Z,9.681001
2022-10-04T10:11:58.259Z,9.680855
2022-10-04T10:12:58.238Z,9.680867
2022-10-04T10:13:58.242Z,9.680800
2022-10-04T10:14:58.237Z,9.681166
2022-10-04T10:15:58.284Z,9.680903
2022-10-04T10:16:58.235Z,9.681127
2022-10-04T10:17:58.193Z,9.681375
2022-10-04T10:18:58.185Z,9.680915
2022-10-04T10:19:58.194Z,9.680772
2022-10-04T10:20:58.166Z,9.680672
2022-10-04T10:21:58.148Z,9.680758
2022-10-04T10:22:58.158Z,9.681223
2022-10-04T10:23:58.140Z,9.681026
2022-10-04T10:24:58.621Z,9.680496
2022-10-04T10:25:58.141Z,9.680949
2022-10-04T10:26:58.151Z,9.681289
2022-10-04T10:27:58.156Z,9.681352
2022-10-04T10:28:58.109Z,9.681650
2022-10-04T10:29:58.095Z,9.681547
2022-10-04T10:30:58.127Z,9.681415
2022-10-04T10:31:58.103Z,9.681598
2022-10-04T10:32:58.070Z,9.681344
2022-10-04T10:33:58.056Z,9.681066
2022-10-04T10:34:58.047Z,9.681066
2022-10-04T10:35:58.042Z,9.681066
2022-10-04T10:36:58.057Z,9.681066
2022-10-04T10:38:02.311Z,9.681673
2022-10-04T10:38:59.031Z,9.681834
2022-10-04T10:39:58.014Z,9.681834
2022-10-04T10:40:58.002Z,9.681336
2022-10-04T10:41:58.005Z,9.681221
2022-10-04T10:42:57.985Z,9.681553
2022-10-04T10:43:57.968Z,9.681601
2022-10-04T10:44:57.990Z,9.681728
2022-10-04T10:45:57.980Z,9.680904
2022-10-04T10:46:57.986Z,9.681183
2022-10-04T10:47:57.937Z,9.681190
2022-10-04T10:48:57.956Z,9.680999
2022-10-04T10:49:57.929Z,9.680930
2022-10-04T10:50:57.916Z,9.681035
2022-10-04T10:51:57.905Z,9.681148
2022-10-04T10:52:57.896Z,9.681012
2022-10-04T10:53:57.901Z,9.680550
2022-10-04T10:54:57.903Z,9.680249
2022-10-04T10:55:57.877Z,9.680663
2022-10-04T10:56:57.868Z,9.680477
2022-10-04T10:57:57.855Z,9.680686
2022-10-04T10:58:57.851Z,9.680686
2022-10-04T10:59:57.907Z,9.680686
2022-10-04T11:00:57.833Z,9.680616
2022-10-04T11:01:57.966Z,9.680791
2022-10-04T11:03:12.100Z,9.680754
2022-10-04T11:03:58.853Z,9.680418
2022-10-04T11:04:57.849Z,9.680758
2022-10-04T11:05:57.789Z,9.680758
2022-10-04T11:06:57.787Z,9.680758
2022-10-04T11:07:57.770Z,9.680322
2022-10-04T11:08:57.787Z,9.680322
2022-10-04T11:09:57.761Z,9.680322
2022-10-04T11:10:57.783Z,9.680322
2022-10-04T11:11:57.788Z,9.680322
2022-10-04T11:12:57.747Z,9.680322
2022-10-04T11:13:57.723Z,9.680322
2022-10-04T11:14:57.720Z,9.680322
2022-10-04T11:15:57.787Z,9.680322
2022-10-04T11:16:57.706Z,9.680322
2022-10-04T11:17:57.720Z,9.680322
2022-10-04T11:18:57.691Z,9.680322
2022-10-04T11:19:57.678Z,9.680322
2022-10-04T11:20:57.677Z,9.683026
2022-10-04T11:21:57.681Z,9.683026
2022-10-04T11:22:57.659Z,9.681264
2022-10-04T11:23:57.666Z,9.681217
2022-10-04T11:24:57.634Z,9.681217
2022-10-04T11:25:57.628Z,9.681568
2022-10-04T11:26:57.657Z,9.681568
2022-10-04T11:27:57.731Z,9.680573
2022-10-04T11:28:57.616Z,9.680902
2022-10-04T11:29:57.592Z,9.680902
2022-10-04T11:30:57.651Z,9.681311
2022-10-04T11:31:57.575Z,9.681393
2022-10-04T11:32:57.592Z,9.681495
2022-10-04T11:33:57.593Z,9.681591
2022-10-04T11:34:57.579Z,9.681440
2022-10-04T11:35:57.568Z,9.681113
2022-10-04T11:36:57.543Z,9.681081
2022-10-04T11:37:57.528Z,9.681209
2022-10-04T11:38:57.528Z,9.681251
2022-10-04T11:39:57.536Z,9.681260
2022-10-04T11:40:57.521Z,9.681709
2022-10-04T11:41:57.501Z,9.681125
2022-10-04T11:42:57.495Z,9.681260
2022-10-04T11:43:57.494Z,9.681298